Overview Statistics Trail Chart Weather Telemetry Raw packets
 

This is the latest recevied weather packets stored in our database for station/object K1BES. If no packets are shown the sender has not sent any weather packets the latest 10 day(s).

<< 105 106 107 108 109 110 111 >>
Time Temp. Humidity Pressure Rain* Wind** Luminosity Snow
1787851527 26.67° C 79% 1019.7 hPa 0 mm - 72 W/m² -
1787851226 26.67° C 80% 1020.1 hPa 0 mm - 67 W/m² -
1787850922 26.67° C 80% 1019.9 hPa 0 mm - 61 W/m² -
1787850619 26.11° C 80% 1019.8 hPa 0 mm - 57 W/m² -
1787850313 26.11° C 80% 1019.9 hPa 0 mm - 55 W/m² -
1787850010 26.11° C 80% 1020 hPa 0 mm - 54 W/m² -
1787849708 26.11° C 79% 1019.9 hPa 0 mm - 55 W/m² -
1787849404 26.11° C 78% 1020 hPa 0 mm - 54 W/m² -
1787849102 26.11° C 78% 1020.2 hPa 0 mm - 54 W/m² -
1787848796 26.11° C 79% 1020.4 hPa 0 mm - 54 W/m² -
1787848495 26.67° C 79% 1020.3 hPa 0 mm - 57 W/m² -
1787848191 26.67° C 79% 1020.5 hPa 0 mm - 59 W/m² -
1787847890 27.22° C 77% 1020.6 hPa 0 mm - 67 W/m² -
1787847586 27.22° C 77% 1020.7 hPa 0 mm - 72 W/m² -
1787847281 27.22° C 78% 1020.9 hPa 0 mm - 80 W/m² -
1787846978 27.78° C 81% 1020.5 hPa 0 mm - 102 W/m² -
1787846677 28.33° C 79% 1020.2 hPa 0 mm - 105 W/m² -
1787846372 29.44° C 73% 1020 hPa 0 mm - 101 W/m² -
1787846068 31.11° C 68% 1019.8 hPa 0 mm - 75 W/m² -
1787845764 32.22° C 72% 1020 hPa 0 mm - 93 W/m² -
1787845459 33.33° C 68% 1019.5 hPa 0 mm - 96 W/m² -
1787845155 34.44° C 64% 1019.6 hPa 0 mm - 318 W/m² -
1787844850 34.44° C 65% 1019.7 hPa 0 mm - 857 W/m² -
1787844549 34.44° C 63% 1019.9 hPa 0 mm - 841 W/m² -
1787844244 34.44° C 63% 1019.8 hPa 0 mm - 819 W/m² -

* Rain latest hour (hover to see other rain measurements)
** Current wind speed in m/s (hover to see current wind gust speed)